Andice, Texas
Current Conditions -  °F | °C
As of 3:51 PM on Wednesday 22 Oct 2014 (Local Time) from KGTU Reporting Station
Scattered Clouds Scattered Clouds  
Wind Chill: 79°   Ceiling: Unl
Heat Index: 80°   Visibility: 10mi
Dew Point: 57°   Wind: 3mph
Humidity: 47%   Direction: 120°ESE
Pressure: 30.06"   Gusts: NA
Location:  30.6575°N, 97.7523°W
Report Text: KGTU 222051Z 12003KT 10SM SCT045 26/14 A3006
Loading
Personal Weather Stations






























Interactive Weather Map
Tropical Storm Tracking
New forecast layout! Learn more

10-Day Weather Forecast

Advertisements
Track Severe Weather on mobile